createdAt,value
2019-02-20T00:00:29.001Z,19.37
2019-02-20T00:02:56.748Z,22.57
2019-02-20T00:05:24.420Z,19.70
2019-02-20T00:07:52.301Z,17.83
2019-02-20T00:10:20.060Z,17.70
2019-02-20T00:12:47.838Z,17.80
2019-02-20T00:15:15.508Z,20.03
2019-02-20T00:17:43.244Z,19.47
2019-02-20T00:20:11.028Z,20.70
2019-02-20T00:22:40.458Z,17.67
2019-02-20T00:25:08.301Z,17.43
2019-02-20T00:27:36.058Z,17.07
2019-02-20T00:30:04.550Z,16.10
2019-02-20T00:32:32.405Z,15.70
2019-02-20T00:35:00.387Z,16.93
2019-02-20T00:37:28.252Z,16.67
2019-02-20T00:39:56.021Z,16.30
2019-02-20T00:42:23.791Z,19.27
2019-02-20T00:44:55.861Z,18.40
2019-02-20T00:47:41.566Z,18.67
2019-02-20T00:50:09.314Z,21.93
2019-02-20T00:52:38.608Z,19.07
2019-02-20T00:55:07.405Z,19.57
2019-02-20T00:57:35.142Z,19.27
2019-02-20T01:00:03.228Z,18.47
2019-02-20T01:02:30.993Z,18.80
2019-02-20T01:04:58.883Z,19.00
2019-02-20T01:07:26.740Z,19.77
2019-02-20T01:09:54.434Z,20.73
2019-02-20T01:12:22.152Z,20.57
2019-02-20T01:14:49.815Z,20.20
2019-02-20T01:17:17.597Z,20.37
2019-02-20T01:19:45.670Z,21.10
2019-02-20T01:22:13.540Z,19.73
2019-02-20T01:24:41.403Z,19.47
2019-02-20T01:27:09.181Z,19.83
2019-02-20T01:29:36.947Z,19.70
2019-02-20T01:32:05.519Z,21.42
2019-02-20T01:34:33.296Z,23.53
2019-02-20T01:37:01.053Z,22.37
2019-02-20T01:39:28.728Z,22.37
2019-02-20T01:41:56.584Z,23.00
2019-02-20T01:44:24.379Z,22.30
2019-02-20T01:46:52.122Z,21.73
2019-02-20T01:49:19.894Z,20.50
2019-02-20T01:51:47.649Z,20.83
2019-02-20T01:54:15.624Z,21.83
2019-02-20T01:56:43.497Z,19.77
2019-02-20T01:59:11.358Z,22.50
2019-02-20T02:01:39.003Z,21.90
2019-02-20T02:04:07.205Z,22.33
2019-02-20T02:06:34.964Z,20.23
2019-02-20T02:09:02.834Z,20.77
2019-02-20T02:11:30.717Z,23.37
2019-02-20T02:13:58.471Z,21.83
2019-02-20T02:16:26.243Z,21.87
2019-02-20T02:18:54.007Z,21.60
2019-02-20T02:21:21.870Z,21.83
2019-02-20T02:23:49.624Z,20.37
2019-02-20T02:26:17.497Z,19.83
2019-02-20T02:28:45.379Z,20.80
2019-02-20T02:31:13.142Z,21.43
2019-02-20T02:33:40.886Z,21.57
2019-02-20T02:36:08.667Z,21.63
2019-02-20T02:38:36.454Z,20.77
2019-02-20T02:41:04.346Z,20.87
2019-02-20T02:43:32.274Z,22.40
2019-02-20T02:45:59.921Z,19.30
2019-02-20T02:48:27.564Z,22.03
2019-02-20T02:50:55.366Z,19.30
2019-02-20T02:53:30.376Z,21.00
2019-02-20T02:55:52.532Z,20.13
2019-02-20T02:58:20.401Z,20.63
2019-02-20T03:00:48.271Z,19.90
2019-02-20T03:03:16.028Z,19.23
2019-02-20T03:05:43.797Z,19.47
2019-02-20T03:08:11.671Z,18.80
2019-02-20T03:10:39.448Z,19.07
2019-02-20T03:13:07.410Z,20.07
2019-02-20T03:15:35.280Z,19.73
2019-02-20T03:18:03.033Z,20.10
2019-02-20T03:20:30.800Z,19.97
2019-02-20T03:22:58.455Z,19.53
2019-02-20T03:25:26.220Z,21.30
2019-02-20T03:27:53.931Z,19.90
2019-02-20T03:30:21.773Z,19.80
2019-02-20T03:32:49.533Z,19.17
2019-02-20T03:35:17.305Z,20.10
2019-02-20T03:37:45.156Z,19.07
2019-02-20T03:40:13.041Z,19.00
2019-02-20T03:42:41.131Z,19.80
2019-02-20T03:45:08.885Z,18.73
2019-02-20T03:47:36.646Z,20.47
2019-02-20T03:50:06.151Z,20.00
2019-02-20T03:52:33.807Z,18.30
2019-02-20T03:55:01.581Z,19.47
2019-02-20T03:57:29.547Z,19.70
2019-02-20T03:59:57.620Z,20.43
2019-02-20T04:02:27.596Z,19.73
2019-02-20T04:04:55.507Z,21.07
2019-02-20T04:07:23.259Z,21.13
2019-02-20T04:09:51.038Z,22.53
2019-02-20T04:12:18.805Z,21.40
2019-02-20T04:14:46.673Z,20.47
2019-02-20T04:17:14.439Z,20.80
2019-02-20T04:19:42.314Z,19.73
2019-02-20T04:22:09.980Z,19.70
2019-02-20T04:24:37.842Z,20.40
2019-02-20T04:27:05.592Z,18.20
2019-02-20T04:29:33.482Z,20.80
2019-02-20T04:32:01.344Z,19.00
2019-02-20T04:34:29.108Z,20.40
2019-02-20T04:36:56.878Z,19.13
2019-02-20T04:39:24.640Z,19.80
2019-02-20T04:41:52.400Z,18.80
2019-02-20T04:44:20.155Z,18.87
2019-02-20T04:46:47.935Z,18.57
2019-02-20T04:49:15.703Z,18.00
2019-02-20T04:51:43.305Z,19.53
2019-02-20T04:54:13.743Z,18.77
2019-02-20T04:56:40.420Z,18.13
2019-02-20T04:59:08.092Z,17.37
2019-02-20T05:01:35.972Z,19.80
2019-02-20T05:04:03.733Z,20.30
2019-02-20T05:06:31.602Z,18.37
2019-02-20T05:08:59.488Z,19.70
2019-02-20T05:11:27.343Z,18.57
2019-02-20T05:13:54.994Z,18.30
2019-02-20T05:16:22.683Z,17.70
2019-02-20T05:18:50.548Z,19.80
2019-02-20T05:21:18.302Z,17.27
2019-02-20T05:23:46.078Z,17.93
2019-02-20T05:26:13.831Z,16.70
2019-02-20T05:28:41.597Z,18.30
2019-02-20T05:31:09.347Z,16.33
2019-02-20T05:33:37.062Z,16.73
2019-02-20T05:36:05.414Z,15.53
2019-02-20T05:38:33.279Z,14.67
2019-02-20T05:41:01.144Z,14.63
2019-02-20T05:43:28.900Z,14.80
2019-02-20T05:45:56.545Z,14.83
2019-02-20T05:48:24.427Z,14.13
2019-02-20T05:50:52.313Z,14.77
2019-02-20T05:53:20.186Z,13.93
2019-02-20T05:55:48.052Z,14.03
2019-02-20T05:58:15.915Z,14.80
2019-02-20T06:00:43.787Z,15.00
2019-02-20T06:03:11.547Z,14.80
2019-02-20T06:05:39.328Z,15.10
2019-02-20T06:08:07.182Z,15.00
2019-02-20T06:10:35.059Z,16.10
2019-02-20T06:13:02.924Z,13.87
2019-02-20T06:15:30.672Z,13.30
2019-02-20T06:17:58.450Z,13.83
2019-02-20T06:20:26.230Z,13.13
2019-02-20T06:22:54.092Z,13.20
2019-02-20T06:25:21.758Z,13.10
2019-02-20T06:27:49.430Z,12.63
2019-02-20T06:30:17.388Z,14.67
2019-02-20T06:32:45.023Z,14.27
2019-02-20T06:35:12.697Z,13.57
2019-02-20T06:37:40.583Z,13.53
2019-02-20T06:40:09.166Z,13.47
2019-02-20T06:42:36.947Z,12.20
2019-02-20T06:45:05.827Z,12.03
2019-02-20T06:47:33.498Z,12.90
2019-02-20T06:50:01.778Z,11.63
2019-02-20T06:52:29.563Z,12.13
2019-02-20T06:54:57.279Z,11.10
2019-02-20T06:57:24.956Z,11.80
2019-02-20T06:59:52.725Z,10.90
2019-02-20T07:02:20.475Z,12.13
2019-02-20T07:05:06.284Z,14.23
2019-02-20T07:07:35.480Z,12.40
2019-02-20T07:10:16.753Z,13.23
2019-02-20T07:12:48.633Z,13.10
2019-02-20T07:15:18.032Z,13.27
2019-02-20T07:17:50.206Z,13.33
2019-02-20T07:20:19.505Z,12.97
2019-02-20T07:23:05.391Z,12.90
2019-02-20T07:25:34.562Z,13.00
2019-02-20T07:28:03.775Z,14.10
2019-02-20T07:30:31.670Z,14.00
2019-02-20T07:32:59.408Z,14.67
2019-02-20T07:35:27.189Z,14.70
2019-02-20T07:37:54.965Z,14.17
2019-02-20T07:40:22.727Z,13.37
2019-02-20T07:42:50.480Z,16.30
2019-02-20T07:45:18.348Z,15.77
2019-02-20T07:47:46.207Z,16.00
2019-02-20T07:50:14.205Z,15.07
2019-02-20T07:52:41.958Z,14.93
2019-02-20T07:55:13.378Z,14.50
2019-02-20T07:57:39.017Z,14.90
2019-02-20T08:00:08.128Z,14.60
2019-02-20T08:02:35.892Z,14.67
2019-02-20T08:05:03.773Z,14.50
2019-02-20T08:07:31.530Z,14.50
2019-02-20T08:09:59.399Z,12.73
2019-02-20T08:12:27.043Z,13.93
2019-02-20T08:14:54.720Z,14.53
2019-02-20T08:17:22.435Z,13.33
2019-02-20T08:19:50.201Z,13.27
2019-02-20T08:22:17.914Z,13.20
2019-02-20T08:24:45.677Z,13.53
2019-02-20T08:27:13.555Z,13.27
2019-02-20T08:29:41.199Z,14.13
2019-02-20T08:32:08.980Z,14.10
2019-02-20T08:34:36.848Z,13.60
2019-02-20T08:37:04.721Z,14.27
2019-02-20T08:39:32.385Z,13.00
2019-02-20T08:42:00.144Z,17.17
2019-02-20T08:44:27.916Z,13.30
2019-02-20T08:46:55.576Z,14.10
2019-02-20T08:49:23.342Z,13.33
2019-02-20T08:51:51.503Z,13.83
2019-02-20T08:54:19.285Z,13.07
2019-02-20T08:56:47.156Z,12.93
2019-02-20T08:59:14.921Z,13.73
2019-02-20T09:01:42.690Z,13.70
2019-02-20T09:04:10.460Z,13.83
2019-02-20T09:06:38.220Z,13.43
2019-02-20T09:09:06.177Z,13.33
2019-02-20T09:11:33.918Z,12.97
2019-02-20T09:14:01.615Z,15.17
2019-02-20T09:16:29.383Z,13.50
2019-02-20T09:18:57.160Z,12.97
2019-02-20T09:21:24.852Z,13.27
2019-02-20T09:23:52.683Z,12.90
2019-02-20T09:26:20.552Z,13.20
2019-02-20T09:28:48.286Z,13.47
2019-02-20T09:31:16.078Z,12.43
2019-02-20T09:33:43.730Z,13.43
2019-02-20T09:36:11.507Z,13.17
2019-02-20T09:38:39.294Z,13.70
2019-02-20T09:41:07.147Z,11.93
2019-02-20T09:43:34.912Z,12.27
2019-02-20T09:46:02.584Z,12.40
2019-02-20T09:48:30.294Z,13.00
2019-02-20T09:50:58.104Z,12.60
2019-02-20T09:53:25.877Z,12.13
2019-02-20T09:55:53.561Z,13.93
2019-02-20T09:58:21.320Z,13.53
2019-02-20T10:00:49.067Z,14.70
2019-02-20T10:03:16.938Z,15.60
2019-02-20T10:05:44.817Z,13.97
2019-02-20T10:08:12.478Z,14.77
2019-02-20T10:10:40.333Z,14.50
2019-02-20T10:13:11.004Z,15.53
2019-02-20T10:15:37.389Z,13.40
2019-02-20T10:18:07.588Z,18.70
2019-02-20T10:20:35.199Z,12.57
2019-02-20T10:23:03.162Z,14.37
2019-02-20T10:25:30.908Z,13.40
2019-02-20T10:27:58.795Z,14.13
2019-02-20T10:30:26.556Z,13.90
2019-02-20T10:32:54.411Z,14.63
2019-02-20T10:35:22.191Z,15.87
2019-02-20T10:37:50.058Z,13.80
2019-02-20T10:40:17.932Z,14.33
2019-02-20T10:42:45.626Z,13.63
2019-02-20T10:45:13.771Z,11.47
2019-02-20T10:47:41.532Z,13.77
2019-02-20T10:50:10.428Z,12.90
2019-02-20T10:52:38.101Z,12.63
2019-02-20T10:55:07.288Z,12.13
2019-02-20T10:57:35.012Z,12.00
2019-02-20T11:00:02.931Z,13.87
2019-02-20T11:02:30.797Z,10.90
2019-02-20T11:04:58.558Z,11.73
2019-02-20T11:07:26.425Z,9.00
2019-02-20T11:09:54.071Z,7.33
2019-02-20T11:12:21.752Z,9.43
2019-02-20T11:14:49.526Z,7.13
2019-02-20T11:17:17.488Z,8.20
2019-02-20T11:19:45.259Z,7.53
2019-02-20T11:22:12.943Z,9.50
2019-02-20T11:24:40.987Z,9.23
2019-02-20T11:27:08.757Z,8.67
2019-02-20T11:29:36.629Z,9.17
2019-02-20T11:32:05.524Z,8.28
2019-02-20T11:34:33.390Z,7.43
2019-02-20T11:37:01.150Z,8.00
2019-02-20T11:39:37.311Z,8.10
2019-02-20T11:41:58.320Z,7.50
2019-02-20T11:44:26.093Z,10.33
2019-02-20T11:46:53.747Z,9.33
2019-02-20T11:49:21.500Z,7.70
2019-02-20T11:51:49.240Z,10.57
2019-02-20T11:54:16.953Z,7.93
2019-02-20T11:56:44.821Z,7.97
2019-02-20T11:59:12.477Z,6.60
2019-02-20T12:01:40.231Z,6.93
2019-02-20T12:04:08.021Z,8.57
2019-02-20T12:06:35.883Z,7.03
2019-02-20T12:09:05.169Z,6.00
2019-02-20T12:11:32.958Z,4.90
2019-02-20T12:14:00.695Z,6.73
2019-02-20T12:16:28.374Z,4.97
2019-02-20T12:18:56.151Z,3.63
2019-02-20T12:21:24.015Z,4.00
2019-02-20T12:23:51.774Z,3.20
2019-02-20T12:26:19.551Z,3.57
2019-02-20T12:28:47.408Z,3.77
2019-02-20T12:31:15.277Z,2.53
2019-02-20T12:33:43.151Z,2.30
2019-02-20T12:36:10.908Z,2.90
2019-02-20T12:38:38.676Z,3.00
2019-02-20T12:41:06.335Z,2.77
2019-02-20T12:43:33.987Z,2.63
2019-02-20T12:46:01.761Z,3.40
2019-02-20T12:48:29.533Z,4.00
2019-02-20T12:50:57.307Z,4.77
2019-02-20T12:53:25.021Z,4.70
2019-02-20T12:55:52.936Z,3.33
2019-02-20T12:58:20.912Z,5.60
2019-02-20T13:00:48.678Z,4.73
2019-02-20T13:03:17.459Z,3.57
2019-02-20T13:05:45.337Z,3.00
2019-02-20T13:08:13.106Z,3.10
2019-02-20T13:10:40.857Z,2.60
2019-02-20T13:13:08.625Z,3.57
2019-02-20T13:15:36.407Z,3.37
2019-02-20T13:18:04.270Z,3.20
2019-02-20T13:20:32.136Z,3.40
2019-02-20T13:22:59.801Z,2.67
2019-02-20T13:25:27.679Z,2.87
2019-02-20T13:27:55.532Z,3.07
2019-02-20T13:30:23.399Z,3.17
2019-02-20T13:32:52.202Z,2.33
2019-02-20T13:35:19.953Z,3.20
2019-02-20T13:37:48.596Z,5.80
2019-02-20T13:40:16.385Z,4.07
2019-02-20T13:42:44.173Z,3.20
2019-02-20T13:45:12.048Z,2.83
2019-02-20T13:47:40.458Z,3.90
2019-02-20T13:50:11.580Z,2.97
2019-02-20T13:52:39.026Z,4.57
2019-02-20T13:55:06.896Z,3.70
2019-02-20T13:57:37.933Z,3.27
2019-02-20T14:00:07.135Z,2.97
2019-02-20T14:02:34.915Z,3.80
2019-02-20T14:05:02.775Z,3.40
2019-02-20T14:07:30.647Z,2.90
2019-02-20T14:09:58.821Z,4.63
2019-02-20T14:12:26.483Z,4.80
2019-02-20T14:14:54.353Z,5.57
2019-02-20T14:17:26.632Z,3.53
2019-02-20T14:19:51.414Z,2.80
2019-02-20T14:22:20.645Z,4.10
2019-02-20T14:24:49.220Z,6.23
2019-02-20T14:27:17.586Z,4.43
2019-02-20T14:29:45.358Z,3.30
2019-02-20T14:32:13.095Z,6.27
2019-02-20T14:34:40.735Z,3.53
2019-02-20T14:37:08.408Z,5.40
2019-02-20T14:39:36.217Z,6.77
2019-02-20T14:42:04.079Z,6.30
2019-02-20T14:44:33.987Z,5.20
2019-02-20T14:47:01.763Z,3.57
2019-02-20T14:49:29.516Z,5.37
2019-02-20T14:51:57.288Z,4.97
2019-02-20T14:54:26.281Z,4.60
2019-02-20T14:56:53.981Z,7.90
2019-02-20T14:59:21.712Z,5.90
2019-02-20T15:01:49.707Z,8.33
2019-02-20T15:04:17.450Z,8.60
2019-02-20T15:06:45.322Z,7.20
2019-02-20T15:09:13.077Z,5.27
2019-02-20T15:11:40.848Z,5.20
2019-02-20T15:14:08.718Z,6.77
2019-02-20T15:16:36.349Z,7.50
2019-02-20T15:19:04.556Z,5.07
2019-02-20T15:21:32.337Z,5.97
2019-02-20T15:23:59.984Z,5.47
2019-02-20T15:26:27.761Z,5.77
2019-02-20T15:28:55.515Z,3.73
2019-02-20T15:31:23.285Z,7.10
2019-02-20T15:33:51.049Z,8.83
2019-02-20T15:36:18.675Z,4.20
2019-02-20T15:38:46.475Z,8.63
2019-02-20T15:41:14.250Z,17.17
2019-02-20T15:43:42.013Z,10.93
2019-02-20T15:46:09.790Z,19.70
2019-02-20T15:48:37.554Z,16.73
2019-02-20T15:51:05.311Z,18.70
2019-02-20T15:53:33.009Z,9.60
2019-02-20T15:56:01.031Z,13.37
2019-02-20T15:58:28.918Z,11.50
2019-02-20T16:00:56.782Z,8.80
2019-02-20T16:03:24.658Z,5.23
2019-02-20T16:05:52.409Z,4.67
2019-02-20T16:08:20.186Z,5.40
2019-02-20T16:10:47.878Z,4.73
2019-02-20T16:13:16.021Z,6.50
2019-02-20T16:15:43.896Z,6.70
2019-02-20T16:18:11.640Z,7.30
2019-02-20T16:20:39.407Z,6.50
2019-02-20T16:23:07.186Z,7.50
2019-02-20T16:25:34.968Z,6.33
2019-02-20T16:28:02.659Z,6.50
2019-02-20T16:30:30.380Z,7.23
2019-02-20T16:32:58.256Z,9.57
2019-02-20T16:35:26.123Z,8.13
2019-02-20T16:37:53.867Z,9.30
2019-02-20T16:40:21.753Z,11.23
2019-02-20T16:42:49.520Z,9.33
2019-02-20T16:45:21.483Z,8.20
2019-02-20T16:47:49.550Z,7.47
2019-02-20T16:50:17.335Z,5.43
2019-02-20T16:52:45.093Z,5.67
2019-02-20T16:55:19.101Z,31.70
2019-02-20T16:57:42.347Z,5.07
2019-02-20T17:00:12.282Z,8.70
2019-02-20T17:02:40.145Z,5.77
2019-02-20T17:05:13.401Z,6.03
2019-02-20T17:07:39.477Z,10.07
2019-02-20T17:10:08.781Z,10.70
2019-02-20T17:12:36.540Z,10.47
2019-02-20T17:15:05.095Z,17.13
2019-02-20T17:17:32.886Z,26.13
2019-02-20T17:20:00.651Z,19.30
2019-02-20T17:22:28.628Z,40.43
2019-02-20T17:24:56.490Z,53.87
2019-02-20T17:27:24.344Z,35.73
2019-02-20T17:29:52.231Z,22.17
2019-02-20T17:32:19.979Z,17.53
2019-02-20T17:34:47.770Z,18.93
2019-02-20T17:37:15.530Z,9.37
2019-02-20T17:39:43.497Z,8.50
2019-02-20T17:42:11.383Z,8.67
2019-02-20T17:44:39.133Z,10.83
2019-02-20T17:47:06.800Z,17.23
2019-02-20T17:49:34.558Z,15.93
2019-02-20T17:52:02.320Z,12.27
2019-02-20T17:54:30.881Z,16.00
2019-02-20T17:56:58.901Z,17.87
2019-02-20T17:59:26.600Z,13.97
2019-02-20T18:01:54.528Z,13.80
2019-02-20T18:04:23.473Z,12.87
2019-02-20T18:06:51.169Z,11.30
2019-02-20T18:09:18.940Z,11.50
2019-02-20T18:11:46.709Z,9.67
2019-02-20T18:14:14.582Z,11.40
2019-02-20T18:16:42.360Z,17.30
2019-02-20T18:19:10.106Z,11.90
2019-02-20T18:21:37.769Z,16.03
2019-02-20T18:24:05.502Z,16.43
2019-02-20T18:26:33.289Z,18.07
2019-02-20T18:29:01.170Z,21.27
2019-02-20T18:31:29.051Z,20.90
2019-02-20T18:33:56.794Z,20.90
2019-02-20T18:36:24.539Z,21.43
2019-02-20T18:38:52.241Z,21.40
2019-02-20T18:41:20.106Z,21.83
2019-02-20T18:43:47.869Z,21.07
2019-02-20T18:46:15.515Z,19.87
2019-02-20T18:48:43.294Z,20.53
2019-02-20T18:51:11.065Z,20.50
2019-02-20T18:53:38.716Z,19.50
2019-02-20T18:56:06.389Z,19.80
2019-02-20T18:58:34.433Z,19.20
2019-02-20T19:01:02.346Z,19.83
2019-02-20T19:03:30.100Z,20.93
2019-02-20T19:05:57.764Z,23.37
2019-02-20T19:08:32.814Z,33.57
2019-02-20T19:11:01.900Z,26.87
2019-02-20T19:13:40.223Z,31.17
2019-02-20T19:16:21.404Z,27.23
2019-02-20T19:18:50.639Z,30.07
2019-02-20T19:21:19.902Z,48.50
2019-02-20T19:23:55.131Z,33.53
2019-02-20T19:26:30.071Z,59.40
2019-02-20T19:29:02.252Z,71.20
2019-02-20T19:31:34.212Z,34.70
2019-02-20T19:34:03.365Z,28.27
2019-02-20T19:36:38.660Z,24.00
2019-02-20T19:39:07.836Z,23.57
2019-02-20T19:41:40.112Z,22.60
2019-02-20T19:44:25.780Z,23.80
2019-02-20T19:47:04.038Z,24.03
2019-02-20T19:49:48.384Z,23.57
2019-02-20T19:52:23.311Z,23.33
2019-02-20T19:54:52.617Z,23.20
2019-02-20T19:57:22.009Z,24.83
2019-02-20T19:59:57.331Z,29.23
2019-02-20T20:02:35.563Z,30.07
2019-02-20T20:05:07.758Z,29.57
2019-02-20T20:07:44.742Z,28.97
2019-02-20T20:10:17.055Z,29.47
2019-02-20T20:12:58.490Z,31.30
2019-02-20T20:15:30.633Z,32.80
2019-02-20T20:18:02.702Z,29.17
2019-02-20T20:20:32.109Z,31.90
2019-02-20T20:23:07.487Z,27.97
2019-02-20T20:25:36.588Z,28.83
2019-02-20T20:28:07.004Z,27.77
2019-02-20T20:30:36.180Z,28.57
2019-02-20T20:33:11.326Z,26.30
2019-02-20T20:35:46.265Z,27.57
2019-02-20T20:38:27.635Z,27.40
2019-02-20T20:40:57.043Z,27.13
2019-02-20T20:43:44.756Z,27.43
2019-02-20T20:46:32.413Z,25.67
2019-02-20T20:49:14.118Z,26.23
2019-02-20T20:51:59.999Z,23.53
2019-02-20T20:54:41.571Z,25.20
2019-02-20T20:57:29.112Z,26.43
2019-02-20T20:59:58.413Z,26.33
2019-02-20T21:02:27.716Z,26.13
2019-02-20T21:04:57.004Z,25.93
2019-02-20T21:07:26.211Z,26.87
2019-02-20T21:09:55.395Z,27.10
2019-02-20T21:12:41.287Z,89.00
2019-02-20T21:15:28.620Z,33.37
2019-02-20T21:18:03.778Z,37.07
2019-02-20T21:20:35.826Z,39.63
2019-02-20T21:23:11.290Z,33.47
2019-02-20T21:25:58.911Z,27.70
2019-02-20T21:28:36.912Z,27.10
2019-02-20T21:31:22.916Z,27.87
2019-02-20T21:33:55.289Z,25.80
2019-02-20T21:36:24.589Z,28.43
2019-02-20T21:38:56.435Z,26.70
2019-02-20T21:41:34.543Z,25.33
2019-02-20T21:44:15.741Z,26.17
2019-02-20T21:47:02.971Z,26.03
2019-02-20T21:49:32.163Z,26.30
2019-02-20T21:52:01.304Z,29.00
2019-02-20T21:54:33.233Z,31.30
2019-02-20T21:57:02.537Z,36.67
2019-02-20T21:59:44.124Z,37.80
2019-02-20T22:02:13.251Z,22.20
2019-02-20T22:04:45.186Z,24.33
2019-02-20T22:07:17.080Z,23.17
2019-02-20T22:10:01.884Z,22.77
2019-02-20T22:12:36.407Z,21.90
2019-02-20T22:15:10.645Z,22.53
2019-02-20T22:17:39.952Z,23.67
2019-02-20T22:20:18.374Z,26.80
2019-02-20T22:22:56.684Z,29.97
2019-02-20T22:25:29.053Z,43.47
2019-02-20T22:28:00.995Z,33.37
2019-02-20T22:30:33.393Z,25.93
2019-02-20T22:33:11.705Z,24.80
2019-02-20T22:35:47.148Z,21.27
2019-02-20T22:38:19.135Z,22.07
2019-02-20T22:40:51.202Z,22.90
2019-02-20T22:43:23.251Z,21.83
2019-02-20T22:45:58.104Z,21.40
2019-02-20T22:48:27.279Z,21.90
2019-02-20T22:50:56.427Z,23.77
2019-02-20T22:53:41.149Z,21.80
2019-02-20T22:56:10.442Z,20.70
2019-02-20T22:58:39.638Z,22.50
2019-02-20T23:01:21.069Z,22.47
2019-02-20T23:03:50.429Z,21.47
2019-02-20T23:06:22.502Z,21.23
2019-02-20T23:08:55.796Z,20.20
2019-02-20T23:11:30.834Z,22.10
2019-02-20T23:14:12.418Z,22.27
2019-02-20T23:16:40.287Z,23.30
2019-02-20T23:19:08.064Z,21.60
2019-02-20T23:21:35.823Z,19.80
2019-02-20T23:24:03.477Z,22.27
2019-02-20T23:26:31.349Z,21.30
2019-02-20T23:28:59.118Z,20.37
2019-02-20T23:31:26.780Z,21.83
2019-02-20T23:33:54.448Z,24.00
2019-02-20T23:36:22.239Z,26.23
2019-02-20T23:38:49.976Z,28.57
2019-02-20T23:41:17.741Z,25.63
2019-02-20T23:43:45.407Z,24.77
2019-02-20T23:46:13.272Z,41.23
2019-02-20T23:48:41.039Z,33.73
2019-02-20T23:51:08.913Z,36.07
2019-02-20T23:53:36.782Z,27.93
2019-02-20T23:56:05.252Z,28.20
2019-02-20T23:58:33.132Z,25.27
